createdAt,value
2022-12-14T00:01:34.395Z,4.25
2022-12-14T00:05:36.038Z,4.43
2022-12-14T00:09:37.695Z,5.22
2022-12-14T00:13:39.903Z,5.30
2022-12-14T00:17:41.771Z,4.07
2022-12-14T00:21:43.310Z,3.63
2022-12-14T00:25:44.882Z,5.00
2022-12-14T00:29:50.606Z,4.13
2022-12-14T00:33:52.828Z,5.43
2022-12-14T00:37:54.402Z,4.35
2022-12-14T00:41:56.143Z,5.38
2022-12-14T00:45:58.381Z,5.88
2022-12-14T00:50:00.039Z,4.05
2022-12-14T00:54:01.667Z,5.13
2022-12-14T00:58:03.231Z,4.40
2022-12-14T01:02:05.075Z,4.88
2022-12-14T01:06:06.948Z,4.33
2022-12-14T01:10:09.018Z,3.10
2022-12-14T01:14:13.299Z,3.63
2022-12-14T01:18:15.039Z,4.45
2022-12-14T01:22:16.605Z,4.55
2022-12-14T01:26:18.971Z,3.75
2022-12-14T01:30:20.816Z,3.58
2022-12-14T01:34:22.362Z,4.50
2022-12-14T01:38:23.916Z,6.07
2022-12-14T01:42:25.576Z,6.95
2022-12-14T01:46:35.868Z,5.63
2022-12-14T01:50:45.592Z,5.22
2022-12-14T01:54:56.511Z,6.20
2022-12-14T01:59:02.347Z,6.85
2022-12-14T02:03:27.375Z,6.43
2022-12-14T02:07:30.248Z,5.97
2022-12-14T02:11:37.947Z,5.28
2022-12-14T02:15:39.911Z,5.60
2022-12-14T02:19:44.041Z,5.40
2022-12-14T02:24:08.044Z,5.57
2022-12-14T02:28:49.698Z,5.50
2022-12-14T02:33:24.425Z,5.45
2022-12-14T02:37:43.394Z,5.90
2022-12-14T02:42:01.386Z,5.22
2022-12-14T02:46:19.763Z,6.18
2022-12-14T02:50:29.293Z,5.90
2022-12-14T02:54:56.065Z,6.10
2022-12-14T02:58:58.302Z,5.43
2022-12-14T03:03:00.913Z,5.57
2022-12-14T03:11:31.607Z,5.50
2022-12-14T03:15:38.388Z,5.65
2022-12-14T03:19:46.432Z,5.32
2022-12-14T03:23:53.135Z,5.25
2022-12-14T03:28:11.246Z,6.53
2022-12-14T03:32:18.918Z,6.68
2022-12-14T03:36:30.423Z,5.88
2022-12-14T03:40:46.063Z,6.65
2022-12-14T03:45:05.593Z,6.22
2022-12-14T03:49:32.187Z,6.43
2022-12-14T03:53:33.729Z,6.35
2022-12-14T03:57:38.232Z,6.97
2022-12-14T04:01:50.162Z,6.60
2022-12-14T04:06:00.332Z,7.33
2022-12-14T04:10:34.464Z,6.57
2022-12-14T04:15:05.288Z,6.97
2022-12-14T04:19:20.982Z,6.20
2022-12-14T04:23:50.488Z,7.20
2022-12-14T04:27:58.853Z,7.20
2022-12-14T04:32:09.821Z,5.57
2022-12-14T04:36:23.804Z,6.20
2022-12-14T04:40:35.517Z,6.18
2022-12-14T04:44:42.524Z,7.20
2022-12-14T04:49:08.897Z,6.50
2022-12-14T04:53:16.501Z,6.63
2022-12-14T04:57:37.673Z,7.03
2022-12-14T05:01:48.963Z,6.38
2022-12-14T05:06:16.543Z,6.18
2022-12-14T05:10:50.967Z,6.65
2022-12-14T05:15:04.858Z,5.85
2022-12-14T05:19:10.561Z,8.07
2022-12-14T05:23:12.545Z,6.60
2022-12-14T05:27:14.406Z,7.00
2022-12-14T05:31:16.641Z,7.03
2022-12-14T05:35:18.278Z,7.38
2022-12-14T05:39:20.041Z,7.22
2022-12-14T05:43:21.636Z,6.38
2022-12-14T05:47:23.750Z,6.43
2022-12-14T05:51:25.510Z,5.75
2022-12-14T05:55:27.146Z,6.32
2022-12-14T05:59:28.837Z,5.97
2022-12-14T06:03:31.014Z,6.75
2022-12-14T06:07:32.815Z,6.55
2022-12-14T06:11:38.439Z,7.00
2022-12-14T06:15:41.233Z,7.03
2022-12-14T06:19:43.286Z,6.53
2022-12-14T06:23:51.848Z,6.43
2022-12-14T06:27:54.879Z,6.73
2022-12-14T06:31:56.482Z,7.25
2022-12-14T06:35:58.065Z,5.93
2022-12-14T06:39:59.814Z,7.22
2022-12-14T06:44:06.027Z,5.70
2022-12-14T06:48:07.912Z,6.18
2022-12-14T06:52:11.486Z,7.13
2022-12-14T06:56:17.470Z,6.95
2022-12-14T07:00:20.203Z,8.07
2022-12-14T07:08:23.670Z,7.95
2022-12-14T07:12:25.226Z,5.82
2022-12-14T07:16:29.348Z,9.18
2022-12-14T07:20:31.442Z,7.10
2022-12-14T07:24:33.115Z,7.85
2022-12-14T07:28:37.212Z,7.85
2022-12-14T07:32:38.907Z,8.75
2022-12-14T07:36:40.677Z,7.53
2022-12-14T07:40:42.528Z,10.02
2022-12-14T07:44:44.324Z,8.20
2022-12-14T07:48:51.547Z,10.33
2022-12-14T07:52:53.181Z,9.05
2022-12-14T07:56:54.832Z,8.48
2022-12-14T08:00:56.574Z,8.45
2022-12-14T08:04:58.244Z,8.55
2022-12-14T08:09:00.919Z,7.50
2022-12-14T08:13:02.513Z,10.35
2022-12-14T08:17:04.183Z,9.50
2022-12-14T08:21:07.756Z,9.32
2022-12-14T08:25:09.593Z,9.65
2022-12-14T08:29:12.963Z,8.40
2022-12-14T08:33:14.682Z,9.63
2022-12-14T08:37:16.329Z,9.35
2022-12-14T08:41:18.336Z,9.18
2022-12-14T08:45:27.620Z,9.45
2022-12-14T08:49:32.416Z,9.85
2022-12-14T08:53:35.871Z,9.18
2022-12-14T08:57:37.639Z,10.50
2022-12-14T09:01:39.494Z,10.70
2022-12-14T09:05:41.282Z,9.53
2022-12-14T09:09:43.076Z,9.43
2022-12-14T09:13:45.222Z,9.35
2022-12-14T09:17:47.373Z,14.35
2022-12-14T09:21:53.976Z,10.43
2022-12-14T09:26:17.435Z,9.37
2022-12-14T09:30:24.803Z,9.80
2022-12-14T09:34:29.275Z,9.38
2022-12-14T09:42:50.541Z,10.32
2022-12-14T09:46:52.735Z,11.27
2022-12-14T09:50:54.697Z,10.32
2022-12-14T09:54:58.472Z,8.90
2022-12-14T09:59:02.587Z,9.18
2022-12-14T10:03:29.870Z,11.35
2022-12-14T10:07:49.775Z,10.52
2022-12-14T10:12:32.483Z,12.10
2022-12-14T10:17:06.014Z,11.00
2022-12-14T10:21:16.537Z,9.05
2022-12-14T10:25:25.412Z,9.57
2022-12-14T10:29:47.531Z,10.27
2022-12-14T10:33:50.775Z,9.50
2022-12-14T10:38:11.465Z,8.50
2022-12-14T10:42:29.848Z,8.02
2022-12-14T10:46:31.722Z,9.23
2022-12-14T10:50:53.544Z,8.73
2022-12-14T10:55:01.978Z,9.55
2022-12-14T10:59:18.802Z,8.32
2022-12-14T11:03:20.928Z,10.35
2022-12-14T11:07:25.390Z,10.07
2022-12-14T11:11:27.745Z,9.82
2022-12-14T11:15:37.022Z,9.65
2022-12-14T11:19:38.606Z,11.32
2022-12-14T11:23:46.102Z,9.75
2022-12-14T11:27:50.019Z,8.63
2022-12-14T11:31:54.925Z,9.23
2022-12-14T11:35:56.504Z,9.13
2022-12-14T11:40:04.993Z,8.90
2022-12-14T11:44:23.890Z,9.75
2022-12-14T11:48:28.136Z,8.95
2022-12-14T11:52:38.929Z,9.45
2022-12-14T11:56:40.552Z,9.32
2022-12-14T12:00:47.713Z,8.20
2022-12-14T12:04:57.859Z,9.57
2022-12-14T12:09:02.046Z,12.02
2022-12-14T12:13:07.193Z,8.80
2022-12-14T12:17:37.409Z,8.40
2022-12-14T12:21:42.863Z,8.65
2022-12-14T12:25:47.956Z,9.45
2022-12-14T12:30:07.146Z,10.90
2022-12-14T12:34:24.563Z,9.63
2022-12-14T12:38:26.260Z,9.40
2022-12-14T12:42:36.947Z,9.38
2022-12-14T12:47:15.376Z,20.73
2022-12-14T12:51:17.176Z,9.73
2022-12-14T12:55:21.453Z,9.02
2022-12-14T12:59:43.105Z,8.02
2022-12-14T13:03:48.701Z,9.00
2022-12-14T13:08:01.639Z,9.35
2022-12-14T13:12:08.326Z,7.40
2022-12-14T13:16:27.769Z,7.22
2022-12-14T13:20:34.748Z,7.80
2022-12-14T13:24:36.544Z,7.70
2022-12-14T13:29:09.142Z,7.05
2022-12-14T13:33:45.949Z,7.18
2022-12-14T13:38:04.971Z,7.28
2022-12-14T13:42:18.704Z,7.40
2022-12-14T13:46:24.634Z,6.95
2022-12-14T13:50:38.242Z,6.97
2022-12-14T13:54:41.557Z,8.32
2022-12-14T13:58:47.810Z,6.50
2022-12-14T14:02:55.735Z,6.38
2022-12-14T14:07:23.978Z,7.43
2022-12-14T14:11:36.941Z,6.50
2022-12-14T14:16:19.316Z,7.15
2022-12-14T14:20:44.998Z,8.02
2022-12-14T14:24:55.809Z,7.90
2022-12-14T14:29:21.683Z,6.93
2022-12-14T14:33:47.348Z,6.90
2022-12-14T14:38:02.654Z,7.43
2022-12-14T14:42:07.807Z,6.75
2022-12-14T14:46:10.875Z,7.25
2022-12-14T14:50:15.615Z,7.53
2022-12-14T14:54:46.153Z,7.70
2022-12-14T14:58:42.302Z,7.17
2022-12-14T15:02:45.808Z,6.78
2022-12-14T15:06:51.084Z,6.35
2022-12-14T15:10:52.994Z,6.80
2022-12-14T15:15:00.404Z,7.33
2022-12-14T15:19:26.741Z,7.00
2022-12-14T15:23:34.488Z,8.82
2022-12-14T15:27:38.984Z,8.48
2022-12-14T15:31:42.124Z,8.07
2022-12-14T15:35:45.580Z,9.18
2022-12-14T15:40:05.189Z,18.77
2022-12-14T15:44:21.068Z,21.88
2022-12-14T15:48:22.867Z,13.23
2022-12-14T15:52:29.902Z,8.90
2022-12-14T15:56:38.034Z,6.82
2022-12-14T16:00:43.731Z,8.40
2022-12-14T16:04:46.118Z,6.47
2022-12-14T16:08:55.104Z,6.85
2022-12-14T16:13:10.298Z,7.60
2022-12-14T16:17:17.966Z,7.38
2022-12-14T16:21:49.678Z,7.35
2022-12-14T16:26:20.701Z,7.32
2022-12-14T16:30:33.016Z,9.20
2022-12-14T16:34:34.637Z,8.35
2022-12-14T16:38:53.820Z,9.27
2022-12-14T16:42:55.459Z,7.82
2022-12-14T16:47:47.416Z,7.40
2022-12-14T16:52:07.276Z,7.85
2022-12-14T16:56:21.879Z,7.55
2022-12-14T17:00:27.282Z,7.35
2022-12-14T17:04:37.301Z,7.97
2022-12-14T17:08:38.970Z,7.88
2022-12-14T17:12:40.634Z,7.18
2022-12-14T17:16:43.073Z,7.30
2022-12-14T17:20:44.800Z,7.95
2022-12-14T17:24:46.457Z,8.27
2022-12-14T17:28:50.106Z,7.57
2022-12-14T17:32:53.611Z,7.22
2022-12-14T17:36:56.501Z,6.90
2022-12-14T17:40:58.475Z,8.65
2022-12-14T17:45:00.708Z,8.17
2022-12-14T17:49:06.787Z,7.28
2022-12-14T17:53:16.727Z,6.75
2022-12-14T17:57:22.351Z,6.80
2022-12-14T18:01:25.619Z,7.60
2022-12-14T18:05:30.112Z,7.30
2022-12-14T18:09:31.794Z,7.63
2022-12-14T18:13:34.576Z,7.45
2022-12-14T18:17:36.806Z,7.50
2022-12-14T18:21:38.564Z,8.00
2022-12-14T18:25:52.679Z,8.50
2022-12-14T18:29:54.463Z,7.53
2022-12-14T18:33:56.062Z,6.82
2022-12-14T18:37:58.513Z,7.43
2022-12-14T18:42:00.253Z,8.82
2022-12-14T18:46:02.007Z,8.53
2022-12-14T18:50:03.882Z,7.90
2022-12-14T18:54:05.768Z,8.90
2022-12-14T18:58:08.174Z,6.13
2022-12-14T19:02:15.068Z,7.85
2022-12-14T19:06:43.610Z,7.65
2022-12-14T19:10:45.680Z,7.53
2022-12-14T19:14:48.859Z,8.20
2022-12-14T19:18:51.588Z,8.00
2022-12-14T19:22:54.812Z,7.05
2022-12-14T19:26:56.637Z,9.17
2022-12-14T19:30:58.556Z,4.87
2022-12-14T19:35:00.306Z,7.90
2022-12-14T19:39:01.899Z,8.90
2022-12-14T19:43:03.556Z,7.88
2022-12-14T19:47:05.224Z,8.65
2022-12-14T19:51:13.199Z,9.40
2022-12-14T19:55:14.788Z,7.97
2022-12-14T19:59:16.373Z,9.07
2022-12-14T20:03:19.275Z,8.90
2022-12-14T20:07:21.090Z,8.80
2022-12-14T20:11:22.960Z,9.73
2022-12-14T20:15:24.794Z,8.90
2022-12-14T20:19:26.618Z,8.50
2022-12-14T20:23:28.717Z,6.27
2022-12-14T20:31:36.717Z,8.55
2022-12-14T20:35:38.618Z,9.30
2022-12-14T20:39:40.261Z,9.67
2022-12-14T20:43:44.200Z,8.73
2022-12-14T20:47:45.902Z,8.57
2022-12-14T20:51:47.847Z,9.20
2022-12-14T20:55:49.353Z,9.25
2022-12-14T20:59:50.989Z,9.98
2022-12-14T21:03:52.771Z,9.55
2022-12-14T21:07:54.443Z,6.70
2022-12-14T21:12:14.723Z,9.23
2022-12-14T21:16:18.071Z,9.27
2022-12-14T21:20:19.756Z,9.95
2022-12-14T21:28:45.552Z,9.27
2022-12-14T21:32:47.240Z,9.53
2022-12-14T21:36:51.504Z,9.15
2022-12-14T21:41:13.461Z,10.00
2022-12-14T21:45:15.068Z,9.33
2022-12-14T21:49:17.102Z,9.35
2022-12-14T21:53:18.748Z,10.48
2022-12-14T21:57:42.069Z,10.32
2022-12-14T22:01:43.976Z,10.68
2022-12-14T22:05:45.832Z,9.07
2022-12-14T22:09:49.958Z,9.33
2022-12-14T22:13:51.911Z,9.20
2022-12-14T22:17:53.615Z,9.90
2022-12-14T22:21:55.495Z,9.67
2022-12-14T22:25:57.901Z,9.10
2022-12-14T22:29:59.638Z,10.45
2022-12-14T22:34:01.390Z,9.50
2022-12-14T22:38:03.124Z,8.53
2022-12-14T22:42:04.975Z,7.43
2022-12-14T22:46:12.440Z,9.57
2022-12-14T22:50:14.802Z,9.77
2022-12-14T22:54:27.766Z,9.98
2022-12-14T23:02:31.681Z,10.85
2022-12-14T23:06:34.521Z,11.15
2022-12-14T23:10:54.981Z,10.75
2022-12-14T23:15:15.822Z,10.27
2022-12-14T23:19:36.144Z,9.55
2022-12-14T23:23:57.981Z,9.52
2022-12-14T23:28:18.958Z,9.32
2022-12-14T23:32:39.375Z,10.02
2022-12-14T23:36:59.650Z,9.73
2022-12-14T23:41:21.059Z,9.95
2022-12-14T23:45:41.567Z,10.38
2022-12-14T23:50:01.669Z,9.45
2022-12-14T23:54:22.000Z,9.13
2022-12-14T23:58:44.017Z,9.10
